Liberal Mid-America Regional Airport Liberal US
ICAO: KLBL
IATA: LBL
Category: Medium
Scheduled Services: Yes

Elevation: 2885 ft
TransAlt. 18000 ft.

Airport Communications:
AWOS 3:118.375
KANSAS CITY CNTR:134
WICHITA RDO:122.4
CTAF/UNICOM:122.8

KLBL Zoom In..

If Map Doesn't Load, Click Here

Runways:

(A) RW 04 length 5721 ft width 150 ft
---- / hdg 35

(B) RW 17 length 7105 ft width 100 ft
---- / hdg 170

(C) RW 22 length 5721 ft width 150 ft
---- / hdg 215

(D) RW 35 length 7105 ft width 100 ft
ILS 111.30 / hdg 350

Location; KLBL
Day. 24 / Time. 05.56 Zulu
* Altimeter: 29.95
* Temperature: 13° c. 55.4°f.
* Wind from: 160° Speed 07 kn.
Dewpoint: 11° c.
Visibility: 10 Statute Miles.
Clouds: Clear (automated report).

KLBL 240556Z AUTO 16007KT 10SM CLR 13/11 A2995 RMK AO2 SLP117 T01280111 10256 20128 402940056 53001


Wind From 160°
Speed 07 kn.

 
 
jpsmedia.com for Web Design worldairports.se 2018   terms of use